sensor_id;sensor_type;location;lat;lon;timestamp;P1;durP1;ratioP1;P2;durP2;ratioP2
46721;SDS011;32455;43.430;23.136;2022-09-03T00:00:40;5.05;;;4.55;;
46721;SDS011;32455;43.430;23.136;2022-09-03T00:03:38;6.65;;;4.70;;
46721;SDS011;32455;43.430;23.136;2022-09-03T00:06:34;8.13;;;5.22;;
46721;SDS011;32455;43.430;23.136;2022-09-03T00:09:32;7.22;;;4.93;;
46721;SDS011;32455;43.430;23.136;2022-09-03T00:12:27;5.80;;;4.90;;
46721;SDS011;32455;43.430;23.136;2022-09-03T00:15:19;6.75;;;5.43;;
46721;SDS011;32455;43.430;23.136;2022-09-03T00:18:08;7.25;;;5.53;;
46721;SDS011;32455;43.430;23.136;2022-09-03T00:21:08;5.47;;;4.85;;
46721;SDS011;32455;43.430;23.136;2022-09-03T00:23:57;8.02;;;4.93;;
46721;SDS011;32455;43.430;23.136;2022-09-03T00:26:51;9.65;;;6.05;;
46721;SDS011;32455;43.430;23.136;2022-09-03T00:30:04;7.47;;;5.43;;
46721;SDS011;32455;43.430;23.136;2022-09-03T00:36:17;6.75;;;5.18;;
46721;SDS011;32455;43.430;23.136;2022-09-03T00:39:26;7.05;;;5.15;;
46721;SDS011;32455;43.430;23.136;2022-09-03T00:42:20;9.13;;;5.25;;
46721;SDS011;32455;43.430;23.136;2022-09-03T00:54:04;8.13;;;5.57;;
46721;SDS011;32455;43.430;23.136;2022-09-03T01:00:04;11.13;;;6.20;;
46721;SDS011;32455;43.430;23.136;2022-09-03T01:02:57;8.38;;;5.32;;
46721;SDS011;32455;43.430;23.136;2022-09-03T01:05:49;9.93;;;5.85;;
46721;SDS011;32455;43.430;23.136;2022-09-03T01:08:48;10.63;;;6.20;;
46721;SDS011;32455;43.430;23.136;2022-09-03T01:12:05;6.65;;;5.45;;
46721;SDS011;32455;43.430;23.136;2022-09-03T01:21:28;9.45;;;6.47;;
46721;SDS011;32455;43.430;23.136;2022-09-03T01:31:11;8.88;;;6.13;;
46721;SDS011;32455;43.430;23.136;2022-09-03T01:37:24;11.27;;;6.35;;
46721;SDS011;32455;43.430;23.136;2022-09-03T01:43:31;8.23;;;5.50;;
46721;SDS011;32455;43.430;23.136;2022-09-03T01:46:41;7.60;;;5.80;;
46721;SDS011;32455;43.430;23.136;2022-09-03T01:49:43;5.38;;;4.88;;
46721;SDS011;32455;43.430;23.136;2022-09-03T01:59:27;8.88;;;6.05;;
46721;SDS011;32455;43.430;23.136;2022-09-03T02:02:15;9.52;;;5.93;;
46721;SDS011;32455;43.430;23.136;2022-09-03T02:07:57;9.10;;;6.15;;
46721;SDS011;32455;43.430;23.136;2022-09-03T02:10:50;9.90;;;6.30;;
46721;SDS011;32455;43.430;23.136;2022-09-03T02:13:42;13.63;;;7.00;;
46721;SDS011;32455;43.430;23.136;2022-09-03T02:16:32;8.23;;;5.95;;
46721;SDS011;32455;43.430;23.136;2022-09-03T02:19:19;8.30;;;6.47;;
46721;SDS011;32455;43.430;23.136;2022-09-03T02:22:04;8.60;;;6.72;;
46721;SDS011;32455;43.430;23.136;2022-09-03T02:24:51;9.05;;;6.35;;
46721;SDS011;32455;43.430;23.136;2022-09-03T02:27:40;10.13;;;6.47;;
46721;SDS011;32455;43.430;23.136;2022-09-03T02:30:25;8.95;;;6.50;;
46721;SDS011;32455;43.430;23.136;2022-09-03T02:33:11;11.35;;;6.43;;
46721;SDS011;32455;43.430;23.136;2022-09-03T02:35:56;8.02;;;6.40;;
46721;SDS011;32455;43.430;23.136;2022-09-03T02:38:42;9.00;;;6.53;;
46721;SDS011;32455;43.430;23.136;2022-09-03T02:41:29;9.02;;;7.00;;
46721;SDS011;32455;43.430;23.136;2022-09-03T02:44:19;9.57;;;7.20;;
46721;SDS011;32455;43.430;23.136;2022-09-03T02:47:11;10.10;;;6.32;;
46721;SDS011;32455;43.430;23.136;2022-09-03T02:49:56;8.93;;;6.97;;
46721;SDS011;32455;43.430;23.136;2022-09-03T02:52:43;9.35;;;6.88;;
46721;SDS011;32455;43.430;23.136;2022-09-03T02:55:28;8.60;;;6.30;;
46721;SDS011;32455;43.430;23.136;2022-09-03T02:58:14;8.23;;;6.25;;
46721;SDS011;32455;43.430;23.136;2022-09-03T03:00:59;10.15;;;6.53;;
46721;SDS011;32455;43.430;23.136;2022-09-03T03:03:45;9.93;;;6.63;;
46721;SDS011;32455;43.430;23.136;2022-09-03T03:06:30;8.68;;;6.30;;
46721;SDS011;32455;43.430;23.136;2022-09-03T03:09:17;7.50;;;6.22;;
46721;SDS011;32455;43.430;23.136;2022-09-03T03:12:03;8.18;;;6.20;;
46721;SDS011;32455;43.430;23.136;2022-09-03T03:14:49;7.97;;;6.57;;
46721;SDS011;32455;43.430;23.136;2022-09-03T03:17:34;8.20;;;6.53;;
46721;SDS011;32455;43.430;23.136;2022-09-03T03:20:20;9.43;;;6.82;;
46721;SDS011;32455;43.430;23.136;2022-09-03T03:23:05;10.65;;;7.20;;
46721;SDS011;32455;43.430;23.136;2022-09-03T03:25:51;8.75;;;6.65;;
46721;SDS011;32455;43.430;23.136;2022-09-03T03:28:36;9.45;;;7.20;;
46721;SDS011;32455;43.430;23.136;2022-09-03T03:31:22;10.35;;;7.45;;
46721;SDS011;32455;43.430;23.136;2022-09-03T03:34:09;10.32;;;7.35;;
46721;SDS011;32455;43.430;23.136;2022-09-03T03:36:55;8.18;;;7.32;;
46721;SDS011;32455;43.430;23.136;2022-09-03T03:39:40;7.28;;;6.47;;
46721;SDS011;32455;43.430;23.136;2022-09-03T03:42:26;9.25;;;6.57;;
46721;SDS011;32455;43.430;23.136;2022-09-03T03:45:11;8.95;;;6.65;;
46721;SDS011;32455;43.430;23.136;2022-09-03T03:47:56;12.80;;;6.78;;
46721;SDS011;32455;43.430;23.136;2022-09-03T03:50:43;9.05;;;6.30;;
46721;SDS011;32455;43.430;23.136;2022-09-03T03:53:27;9.68;;;6.72;;
46721;SDS011;32455;43.430;23.136;2022-09-03T03:56:13;7.35;;;6.50;;
46721;SDS011;32455;43.430;23.136;2022-09-03T03:59:00;6.85;;;6.15;;
46721;SDS011;32455;43.430;23.136;2022-09-03T04:01:46;10.60;;;6.50;;
46721;SDS011;32455;43.430;23.136;2022-09-03T04:04:33;7.63;;;6.28;;
46721;SDS011;32455;43.430;23.136;2022-09-03T04:07:20;8.55;;;6.55;;
46721;SDS011;32455;43.430;23.136;2022-09-03T04:10:05;11.63;;;6.63;;
46721;SDS011;32455;43.430;23.136;2022-09-03T04:12:53;9.25;;;6.32;;
46721;SDS011;32455;43.430;23.136;2022-09-03T04:15:38;7.50;;;6.32;;
46721;SDS011;32455;43.430;23.136;2022-09-03T04:18:24;9.43;;;6.32;;
46721;SDS011;32455;43.430;23.136;2022-09-03T04:21:11;7.38;;;6.10;;
46721;SDS011;32455;43.430;23.136;2022-09-03T04:23:58;8.20;;;6.28;;
46721;SDS011;32455;43.430;23.136;2022-09-03T04:26:43;7.18;;;5.78;;
46721;SDS011;32455;43.430;23.136;2022-09-03T04:29:29;7.45;;;5.50;;
46721;SDS011;32455;43.430;23.136;2022-09-03T04:32:15;7.32;;;6.20;;
46721;SDS011;32455;43.430;23.136;2022-09-03T04:35:20;6.32;;;5.45;;
46721;SDS011;32455;43.430;23.136;2022-09-03T04:38:09;8.55;;;5.45;;
46721;SDS011;32455;43.430;23.136;2022-09-03T04:40:55;7.63;;;5.78;;
46721;SDS011;32455;43.430;23.136;2022-09-03T04:43:40;7.30;;;5.50;;
46721;SDS011;32455;43.430;23.136;2022-09-03T04:46:27;7.28;;;5.95;;
46721;SDS011;32455;43.430;23.136;2022-09-03T04:49:17;8.30;;;6.47;;
46721;SDS011;32455;43.430;23.136;2022-09-03T04:52:03;9.73;;;6.13;;
46721;SDS011;32455;43.430;23.136;2022-09-03T04:54:49;9.63;;;6.70;;
46721;SDS011;32455;43.430;23.136;2022-09-03T04:57:35;11.15;;;6.40;;
46721;SDS011;32455;43.430;23.136;2022-09-03T05:00:21;7.68;;;6.00;;
46721;SDS011;32455;43.430;23.136;2022-09-03T05:03:07;7.70;;;6.00;;
46721;SDS011;32455;43.430;23.136;2022-09-03T05:05:53;7.53;;;6.03;;
46721;SDS011;32455;43.430;23.136;2022-09-03T05:08:39;7.50;;;5.95;;
46721;SDS011;32455;43.430;23.136;2022-09-03T05:11:25;7.53;;;5.88;;
46721;SDS011;32455;43.430;23.136;2022-09-03T05:14:12;9.23;;;6.22;;
46721;SDS011;32455;43.430;23.136;2022-09-03T05:16:58;8.75;;;6.15;;
46721;SDS011;32455;43.430;23.136;2022-09-03T05:19:43;9.50;;;5.50;;
46721;SDS011;32455;43.430;23.136;2022-09-03T05:22:28;7.93;;;5.78;;
46721;SDS011;32455;43.430;23.136;2022-09-03T05:25:14;6.90;;;5.65;;
46721;SDS011;32455;43.430;23.136;2022-09-03T05:27:59;7.25;;;5.57;;
46721;SDS011;32455;43.430;23.136;2022-09-03T05:30:46;6.18;;;5.18;;
46721;SDS011;32455;43.430;23.136;2022-09-03T05:33:35;5.22;;;4.72;;
46721;SDS011;32455;43.430;23.136;2022-09-03T05:36:23;6.85;;;5.45;;
46721;SDS011;32455;43.430;23.136;2022-09-03T05:39:09;5.63;;;4.93;;
46721;SDS011;32455;43.430;23.136;2022-09-03T05:41:55;5.70;;;4.70;;
46721;SDS011;32455;43.430;23.136;2022-09-03T05:44:40;6.15;;;4.88;;
46721;SDS011;32455;43.430;23.136;2022-09-03T05:47:27;4.72;;;4.18;;
46721;SDS011;32455;43.430;23.136;2022-09-03T05:50:12;4.78;;;4.30;;
46721;SDS011;32455;43.430;23.136;2022-09-03T05:52:58;6.70;;;4.45;;
46721;SDS011;32455;43.430;23.136;2022-09-03T05:55:43;5.43;;;4.53;;
46721;SDS011;32455;43.430;23.136;2022-09-03T05:58:43;5.93;;;5.32;;
46721;SDS011;32455;43.430;23.136;2022-09-03T06:01:34;7.38;;;4.38;;
46721;SDS011;32455;43.430;23.136;2022-09-03T06:04:22;4.57;;;4.03;;
46721;SDS011;32455;43.430;23.136;2022-09-03T06:07:07;5.45;;;3.80;;
46721;SDS011;32455;43.430;23.136;2022-09-03T06:09:53;6.13;;;4.18;;
46721;SDS011;32455;43.430;23.136;2022-09-03T06:12:40;4.70;;;4.22;;
46721;SDS011;32455;43.430;23.136;2022-09-03T06:15:25;4.82;;;4.03;;
46721;SDS011;32455;43.430;23.136;2022-09-03T06:18:11;4.38;;;3.92;;
46721;SDS011;32455;43.430;23.136;2022-09-03T06:21:02;5.05;;;4.10;;
46721;SDS011;32455;43.430;23.136;2022-09-03T06:23:51;4.00;;;3.53;;
46721;SDS011;32455;43.430;23.136;2022-09-03T06:26:40;4.63;;;4.15;;
46721;SDS011;32455;43.430;23.136;2022-09-03T06:29:26;4.65;;;4.07;;
46721;SDS011;32455;43.430;23.136;2022-09-03T06:32:12;5.63;;;4.20;;
46721;SDS011;32455;43.430;23.136;2022-09-03T06:34:58;4.82;;;3.83;;
46721;SDS011;32455;43.430;23.136;2022-09-03T06:37:43;5.03;;;4.07;;
46721;SDS011;32455;43.430;23.136;2022-09-03T06:40:29;4.32;;;3.90;;
46721;SDS011;32455;43.430;23.136;2022-09-03T06:43:14;3.33;;;3.03;;
46721;SDS011;32455;43.430;23.136;2022-09-03T06:46:01;4.50;;;3.42;;
46721;SDS011;32455;43.430;23.136;2022-09-03T06:48:49;7.05;;;4.10;;
46721;SDS011;32455;43.430;23.136;2022-09-03T06:51:35;4.30;;;3.90;;
46721;SDS011;32455;43.430;23.136;2022-09-03T06:54:22;3.70;;;3.03;;
46721;SDS011;32455;43.430;23.136;2022-09-03T06:57:08;3.90;;;3.50;;
46721;SDS011;32455;43.430;23.136;2022-09-03T06:59:53;3.72;;;3.30;;
46721;SDS011;32455;43.430;23.136;2022-09-03T07:02:39;3.75;;;3.45;;
46721;SDS011;32455;43.430;23.136;2022-09-03T07:05:25;5.07;;;4.00;;
46721;SDS011;32455;43.430;23.136;2022-09-03T07:08:12;4.70;;;4.22;;
46721;SDS011;32455;43.430;23.136;2022-09-03T07:11:01;5.20;;;4.70;;
46721;SDS011;32455;43.430;23.136;2022-09-03T07:13:50;5.30;;;4.30;;
46721;SDS011;32455;43.430;23.136;2022-09-03T07:16:37;4.60;;;4.20;;
46721;SDS011;32455;43.430;23.136;2022-09-03T07:19:22;6.53;;;4.30;;
46721;SDS011;32455;43.430;23.136;2022-09-03T07:22:08;4.53;;;4.07;;
46721;SDS011;32455;43.430;23.136;2022-09-03T07:24:53;5.47;;;4.97;;
46721;SDS011;32455;43.430;23.136;2022-09-03T07:27:39;5.95;;;4.30;;
46721;SDS011;32455;43.430;23.136;2022-09-03T07:30:24;5.00;;;4.50;;
46721;SDS011;32455;43.430;23.136;2022-09-03T07:33:10;5.18;;;4.32;;
46721;SDS011;32455;43.430;23.136;2022-09-03T07:36:00;5.10;;;3.92;;
46721;SDS011;32455;43.430;23.136;2022-09-03T07:38:47;4.85;;;4.35;;
46721;SDS011;32455;43.430;23.136;2022-09-03T07:41:33;4.35;;;3.63;;
46721;SDS011;32455;43.430;23.136;2022-09-03T07:44:19;4.57;;;3.92;;
46721;SDS011;32455;43.430;23.136;2022-09-03T07:47:06;4.85;;;3.85;;
46721;SDS011;32455;43.430;23.136;2022-09-03T07:49:51;4.32;;;3.92;;
46721;SDS011;32455;43.430;23.136;2022-09-03T07:52:37;4.68;;;3.88;;
46721;SDS011;32455;43.430;23.136;2022-09-03T07:55:22;4.13;;;3.72;;
46721;SDS011;32455;43.430;23.136;2022-09-03T07:58:07;4.72;;;4.25;;
46721;SDS011;32455;43.430;23.136;2022-09-03T08:00:55;4.32;;;3.88;;
46721;SDS011;32455;43.430;23.136;2022-09-03T08:03:47;4.68;;;3.95;;
46721;SDS011;32455;43.430;23.136;2022-09-03T08:06:33;3.72;;;3.42;;
46721;SDS011;32455;43.430;23.136;2022-09-03T08:09:19;3.83;;;3.53;;
46721;SDS011;32455;43.430;23.136;2022-09-03T08:12:05;4.03;;;3.45;;
46721;SDS011;32455;43.430;23.136;2022-09-03T08:14:50;4.65;;;3.53;;
46721;SDS011;32455;43.430;23.136;2022-09-03T08:17:34;5.18;;;3.47;;
46721;SDS011;32455;43.430;23.136;2022-09-03T08:20:19;3.33;;;3.03;;
46721;SDS011;32455;43.430;23.136;2022-09-03T08:23:05;3.90;;;3.50;;
46721;SDS011;32455;43.430;23.136;2022-09-03T08:25:59;3.40;;;3.10;;
46721;SDS011;32455;43.430;23.136;2022-09-03T08:28:45;2.40;;;2.22;;
46721;SDS011;32455;43.430;23.136;2022-09-03T08:31:31;5.03;;;3.22;;
46721;SDS011;32455;43.430;23.136;2022-09-03T08:34:17;3.92;;;2.30;;
46721;SDS011;32455;43.430;23.136;2022-09-03T08:37:02;3.47;;;2.30;;
46721;SDS011;32455;43.430;23.136;2022-09-03T08:39:50;3.47;;;2.10;;
46721;SDS011;32455;43.430;23.136;2022-09-03T08:42:45;2.25;;;2.00;;
46721;SDS011;32455;43.430;23.136;2022-09-03T08:45:32;3.03;;;2.17;;
46721;SDS011;32455;43.430;23.136;2022-09-03T08:48:20;2.00;;;1.80;;
46721;SDS011;32455;43.430;23.136;2022-09-03T08:51:08;2.20;;;1.60;;
46721;SDS011;32455;43.430;23.136;2022-09-03T08:53:56;1.95;;;1.83;;
46721;SDS011;32455;43.430;23.136;2022-09-03T08:56:42;2.17;;;2.00;;
46721;SDS011;32455;43.430;23.136;2022-09-03T08:59:29;1.95;;;1.85;;
46721;SDS011;32455;43.430;23.136;2022-09-03T09:05:36;2.40;;;2.20;;
46721;SDS011;32455;43.430;23.136;2022-09-03T09:08:32;2.72;;;2.15;;
46721;SDS011;32455;43.430;23.136;2022-09-03T09:20:56;3.22;;;2.92;;
46721;SDS011;32455;43.430;23.136;2022-09-03T09:23:59;3.53;;;3.22;;
46721;SDS011;32455;43.430;23.136;2022-09-03T09:26:50;6.30;;;3.35;;
46721;SDS011;32455;43.430;23.136;2022-09-03T09:29:48;3.67;;;3.05;;
46721;SDS011;32455;43.430;23.136;2022-09-03T09:32:35;3.30;;;3.00;;
46721;SDS011;32455;43.430;23.136;2022-09-03T09:35:21;4.05;;;3.65;;
46721;SDS011;32455;43.430;23.136;2022-09-03T09:38:08;5.03;;;4.53;;
46721;SDS011;32455;43.430;23.136;2022-09-03T09:40:55;3.38;;;3.08;;
46721;SDS011;32455;43.430;23.136;2022-09-03T09:43:42;3.60;;;3.30;;
46721;SDS011;32455;43.430;23.136;2022-09-03T09:46:35;3.78;;;3.47;;
46721;SDS011;32455;43.430;23.136;2022-09-03T09:49:33;4.18;;;3.10;;
46721;SDS011;32455;43.430;23.136;2022-09-03T09:52:21;10.02;;;3.45;;
46721;SDS011;32455;43.430;23.136;2022-09-03T09:55:13;3.60;;;3.30;;
46721;SDS011;32455;43.430;23.136;2022-09-03T09:58:06;3.40;;;3.10;;
46721;SDS011;32455;43.430;23.136;2022-09-03T10:01:01;3.63;;;3.33;;
46721;SDS011;32455;43.430;23.136;2022-09-03T10:03:57;3.88;;;3.58;;
46721;SDS011;32455;43.430;23.136;2022-09-03T10:06:44;3.63;;;3.33;;
46721;SDS011;32455;43.430;23.136;2022-09-03T10:09:38;3.88;;;3.58;;
46721;SDS011;32455;43.430;23.136;2022-09-03T10:12:25;4.90;;;3.35;;
46721;SDS011;32455;43.430;23.136;2022-09-03T10:15:24;3.50;;;3.20;;
46721;SDS011;32455;43.430;23.136;2022-09-03T10:21:40;3.50;;;3.20;;
46721;SDS011;32455;43.430;23.136;2022-09-03T10:24:46;3.22;;;2.97;;
46721;SDS011;32455;43.430;23.136;2022-09-03T10:27:44;3.15;;;2.95;;
46721;SDS011;32455;43.430;23.136;2022-09-03T10:30:30;6.43;;;3.08;;
46721;SDS011;32455;43.430;23.136;2022-09-03T10:33:28;7.78;;;4.10;;
46721;SDS011;32455;43.430;23.136;2022-09-03T10:40:05;4.45;;;3.33;;
46721;SDS011;32455;43.430;23.136;2022-09-03T10:43:02;3.08;;;2.85;;
46721;SDS011;32455;43.430;23.136;2022-09-03T10:46:07;3.80;;;3.22;;
46721;SDS011;32455;43.430;23.136;2022-09-03T10:49:03;4.53;;;3.20;;
46721;SDS011;32455;43.430;23.136;2022-09-03T10:52:29;3.60;;;3.30;;
46721;SDS011;32455;43.430;23.136;2022-09-03T10:58:58;3.45;;;3.08;;
46721;SDS011;32455;43.430;23.136;2022-09-03T11:07:53;3.00;;;2.80;;
46721;SDS011;32455;43.430;23.136;2022-09-03T11:10:49;2.95;;;2.75;;
46721;SDS011;32455;43.430;23.136;2022-09-03T11:13:40;2.80;;;2.50;;
46721;SDS011;32455;43.430;23.136;2022-09-03T11:16:32;3.10;;;2.90;;
46721;SDS011;32455;43.430;23.136;2022-09-03T11:19:40;3.05;;;2.85;;
46721;SDS011;32455;43.430;23.136;2022-09-03T11:22:33;3.45;;;3.15;;
46721;SDS011;32455;43.430;23.136;2022-09-03T11:25:20;3.50;;;2.97;;
46721;SDS011;32455;43.430;23.136;2022-09-03T11:34:32;4.05;;;3.75;;
46721;SDS011;32455;43.430;23.136;2022-09-03T11:37:31;5.85;;;2.92;;
46721;SDS011;32455;43.430;23.136;2022-09-03T11:40:16;3.47;;;3.17;;
46721;SDS011;32455;43.430;23.136;2022-09-03T11:43:08;3.40;;;3.10;;
46721;SDS011;32455;43.430;23.136;2022-09-03T11:46:08;2.97;;;2.75;;
46721;SDS011;32455;43.430;23.136;2022-09-03T11:49:11;3.30;;;3.00;;
46721;SDS011;32455;43.430;23.136;2022-09-03T11:52:10;3.20;;;3.00;;
46721;SDS011;32455;43.430;23.136;2022-09-03T11:54:56;3.53;;;3.33;;
46721;SDS011;32455;43.430;23.136;2022-09-03T11:57:41;4.63;;;2.95;;
46721;SDS011;32455;43.430;23.136;2022-09-03T12:00:27;3.17;;;2.88;;
46721;SDS011;32455;43.430;23.136;2022-09-03T12:03:13;3.72;;;3.40;;
46721;SDS011;32455;43.430;23.136;2022-09-03T12:09:10;3.67;;;3.38;;
46721;SDS011;32455;43.430;23.136;2022-09-03T12:16:35;3.40;;;3.13;;
46721;SDS011;32455;43.430;23.136;2022-09-03T12:19:17;3.78;;;3.40;;
46721;SDS011;32455;43.430;23.136;2022-09-03T12:22:28;4.28;;;3.88;;
46721;SDS011;32455;43.430;23.136;2022-09-03T12:25:14;3.70;;;3.40;;
46721;SDS011;32455;43.430;23.136;2022-09-03T12:28:00;3.28;;;3.00;;
46721;SDS011;32455;43.430;23.136;2022-09-03T12:30:49;3.17;;;2.90;;
46721;SDS011;32455;43.430;23.136;2022-09-03T12:33:39;3.47;;;3.17;;
46721;SDS011;32455;43.430;23.136;2022-09-03T12:36:36;3.58;;;3.28;;
46721;SDS011;32455;43.430;23.136;2022-09-03T12:39:26;4.07;;;3.50;;
46721;SDS011;32455;43.430;23.136;2022-09-03T12:42:22;3.58;;;3.28;;
46721;SDS011;32455;43.430;23.136;2022-09-03T12:45:12;3.90;;;3.40;;
46721;SDS011;32455;43.430;23.136;2022-09-03T12:47:58;3.28;;;2.90;;
46721;SDS011;32455;43.430;23.136;2022-09-03T12:50:44;3.88;;;3.30;;
46721;SDS011;32455;43.430;23.136;2022-09-03T12:53:31;4.55;;;2.70;;
46721;SDS011;32455;43.430;23.136;2022-09-03T12:56:17;3.17;;;2.97;;
46721;SDS011;32455;43.430;23.136;2022-09-03T12:59:05;4.25;;;3.53;;
46721;SDS011;32455;43.430;23.136;2022-09-03T13:01:58;3.70;;;3.33;;
46721;SDS011;32455;43.430;23.136;2022-09-03T13:04:57;3.60;;;3.30;;
46721;SDS011;32455;43.430;23.136;2022-09-03T13:07:44;3.60;;;3.22;;
46721;SDS011;32455;43.430;23.136;2022-09-03T13:10:39;5.03;;;3.15;;
46721;SDS011;32455;43.430;23.136;2022-09-03T13:13:30;3.55;;;3.25;;
46721;SDS011;32455;43.430;23.136;2022-09-03T13:25:14;3.90;;;3.60;;
46721;SDS011;32455;43.430;23.136;2022-09-03T13:34:21;5.93;;;3.60;;
46721;SDS011;32455;43.430;23.136;2022-09-03T13:40:48;3.80;;;3.50;;
46721;SDS011;32455;43.430;23.136;2022-09-03T13:43:42;3.88;;;3.47;;
46721;SDS011;32455;43.430;23.136;2022-09-03T13:53:03;6.95;;;5.60;;
46721;SDS011;32455;43.430;23.136;2022-09-03T13:59:28;27.33;;;11.93;;
46721;SDS011;32455;43.430;23.136;2022-09-03T14:11:45;6.13;;;4.75;;
46721;SDS011;32455;43.430;23.136;2022-09-03T14:18:01;6.22;;;4.68;;
46721;SDS011;32455;43.430;23.136;2022-09-03T14:21:30;4.60;;;4.20;;
46721;SDS011;32455;43.430;23.136;2022-09-03T14:25:10;4.30;;;3.85;;
46721;SDS011;32455;43.430;23.136;2022-09-03T14:27:38;4.35;;;3.95;;
46721;SDS011;32455;43.430;23.136;2022-09-03T14:36:28;4.53;;;4.13;;
46721;SDS011;32455;43.430;23.136;2022-09-03T14:42:15;7.18;;;5.82;;
46721;SDS011;32455;43.430;23.136;2022-09-03T15:06:59;4.88;;;4.00;;
46721;SDS011;32455;43.430;23.136;2022-09-03T15:10:15;4.78;;;4.38;;
46721;SDS011;32455;43.430;23.136;2022-09-03T15:13:15;5.43;;;4.10;;
46721;SDS011;32455;43.430;23.136;2022-09-03T15:19:12;10.38;;;5.45;;
46721;SDS011;32455;43.430;23.136;2022-09-03T15:25:18;4.10;;;3.72;;
46721;SDS011;32455;43.430;23.136;2022-09-03T15:37:29;5.45;;;3.95;;
46721;SDS011;32455;43.430;23.136;2022-09-03T15:40:26;4.60;;;4.15;;
46721;SDS011;32455;43.430;23.136;2022-09-03T15:46:08;4.85;;;4.45;;
46721;SDS011;32455;43.430;23.136;2022-09-03T15:55:25;5.35;;;4.85;;
46721;SDS011;32455;43.430;23.136;2022-09-03T15:58:38;4.75;;;4.35;;
46721;SDS011;32455;43.430;23.136;2022-09-03T16:02:31;5.95;;;4.57;;
46721;SDS011;32455;43.430;23.136;2022-09-03T16:08:09;5.32;;;4.82;;
46721;SDS011;32455;43.430;23.136;2022-09-03T16:16:55;5.55;;;4.47;;
46721;SDS011;32455;43.430;23.136;2022-09-03T16:19:45;5.28;;;4.78;;
46721;SDS011;32455;43.430;23.136;2022-09-03T16:22:42;7.03;;;5.00;;
46721;SDS011;32455;43.430;23.136;2022-09-03T16:25:34;6.32;;;5.07;;
46721;SDS011;32455;43.430;23.136;2022-09-03T16:28:44;5.20;;;4.68;;
46721;SDS011;32455;43.430;23.136;2022-09-03T16:31:50;6.18;;;5.57;;
46721;SDS011;32455;43.430;23.136;2022-09-03T16:47:38;5.65;;;5.15;;
46721;SDS011;32455;43.430;23.136;2022-09-03T16:59:32;6.38;;;5.25;;
46721;SDS011;32455;43.430;23.136;2022-09-03T17:02:39;7.15;;;5.63;;
46721;SDS011;32455;43.430;23.136;2022-09-03T17:06:15;7.03;;;5.65;;
46721;SDS011;32455;43.430;23.136;2022-09-03T17:12:53;6.40;;;5.80;;
46721;SDS011;32455;43.430;23.136;2022-09-03T17:15:57;6.93;;;5.75;;
46721;SDS011;32455;43.430;23.136;2022-09-03T17:28:38;6.05;;;5.45;;
46721;SDS011;32455;43.430;23.136;2022-09-03T17:31:45;9.98;;;6.18;;
46721;SDS011;32455;43.430;23.136;2022-09-03T17:34:48;7.78;;;5.80;;
46721;SDS011;32455;43.430;23.136;2022-09-03T17:37:57;6.13;;;5.53;;
46721;SDS011;32455;43.430;23.136;2022-09-03T17:44:09;6.63;;;5.97;;
46721;SDS011;32455;43.430;23.136;2022-09-03T17:50:41;6.00;;;5.50;;
46721;SDS011;32455;43.430;23.136;2022-09-03T17:56:59;8.10;;;5.40;;
46721;SDS011;32455;43.430;23.136;2022-09-03T18:00:06;7.30;;;5.20;;
46721;SDS011;32455;43.430;23.136;2022-09-03T18:08:35;7.57;;;5.40;;
46721;SDS011;32455;43.430;23.136;2022-09-03T18:15:11;6.22;;;5.25;;
46721;SDS011;32455;43.430;23.136;2022-09-03T18:18:06;6.43;;;5.25;;
46721;SDS011;32455;43.430;23.136;2022-09-03T18:21:02;6.63;;;5.68;;
46721;SDS011;32455;43.430;23.136;2022-09-03T18:27:39;6.70;;;6.00;;
46721;SDS011;32455;43.430;23.136;2022-09-03T18:30:48;7.38;;;5.60;;
46721;SDS011;32455;43.430;23.136;2022-09-03T18:33:52;6.80;;;6.10;;
46721;SDS011;32455;43.430;23.136;2022-09-03T18:36:57;7.57;;;6.88;;
46721;SDS011;32455;43.430;23.136;2022-09-03T18:40:02;7.55;;;6.63;;
46721;SDS011;32455;43.430;23.136;2022-09-03T18:46:27;7.95;;;6.57;;
46721;SDS011;32455;43.430;23.136;2022-09-03T18:49:47;7.38;;;6.60;;
46721;SDS011;32455;43.430;23.136;2022-09-03T18:53:05;9.93;;;6.13;;
46721;SDS011;32455;43.430;23.136;2022-09-03T19:00:05;8.60;;;6.30;;
46721;SDS011;32455;43.430;23.136;2022-09-03T19:06:41;9.20;;;5.97;;
46721;SDS011;32455;43.430;23.136;2022-09-03T19:10:02;6.45;;;5.85;;
46721;SDS011;32455;43.430;23.136;2022-09-03T19:20:17;7.18;;;6.53;;
46721;SDS011;32455;43.430;23.136;2022-09-03T19:23:31;8.47;;;6.30;;
46721;SDS011;32455;43.430;23.136;2022-09-03T19:26:39;9.32;;;6.38;;
46721;SDS011;32455;43.430;23.136;2022-09-03T19:33:10;7.68;;;6.97;;
46721;SDS011;32455;43.430;23.136;2022-09-03T19:43:24;8.45;;;7.65;;
46721;SDS011;32455;43.430;23.136;2022-09-03T19:53:25;7.97;;;7.18;;
46721;SDS011;32455;43.430;23.136;2022-09-03T19:56:31;9.77;;;7.25;;
46721;SDS011;32455;43.430;23.136;2022-09-03T19:59:38;8.00;;;7.15;;
46721;SDS011;32455;43.430;23.136;2022-09-03T20:02:45;10.75;;;7.47;;
46721;SDS011;32455;43.430;23.136;2022-09-03T20:05:51;8.05;;;7.25;;
46721;SDS011;32455;43.430;23.136;2022-09-03T20:08:59;8.60;;;7.45;;
46721;SDS011;32455;43.430;23.136;2022-09-03T20:12:10;8.50;;;7.40;;
46721;SDS011;32455;43.430;23.136;2022-09-03T20:15:03;8.27;;;7.30;;
46721;SDS011;32455;43.430;23.136;2022-09-03T20:17:55;7.68;;;6.97;;
46721;SDS011;32455;43.430;23.136;2022-09-03T20:24:03;8.02;;;7.20;;
46721;SDS011;32455;43.430;23.136;2022-09-03T20:30:19;7.85;;;6.75;;
46721;SDS011;32455;43.430;23.136;2022-09-03T20:36:24;8.98;;;7.45;;
46721;SDS011;32455;43.430;23.136;2022-09-03T20:45:31;7.55;;;6.80;;
46721;SDS011;32455;43.430;23.136;2022-09-03T20:51:21;10.68;;;7.07;;
46721;SDS011;32455;43.430;23.136;2022-09-03T21:00:07;7.75;;;6.90;;
46721;SDS011;32455;43.430;23.136;2022-09-03T21:09:18;8.05;;;6.68;;
46721;SDS011;32455;43.430;23.136;2022-09-03T21:12:15;7.88;;;6.57;;
46721;SDS011;32455;43.430;23.136;2022-09-03T21:15:17;7.57;;;6.88;;
46721;SDS011;32455;43.430;23.136;2022-09-03T21:24:51;7.72;;;6.72;;
46721;SDS011;32455;43.430;23.136;2022-09-03T21:27:45;8.63;;;7.28;;
46721;SDS011;32455;43.430;23.136;2022-09-03T21:30:36;8.63;;;6.35;;
46721;SDS011;32455;43.430;23.136;2022-09-03T21:33:30;9.50;;;6.60;;
46721;SDS011;32455;43.430;23.136;2022-09-03T21:36:33;10.63;;;6.82;;
46721;SDS011;32455;43.430;23.136;2022-09-03T21:39:20;11.52;;;6.32;;
46721;SDS011;32455;43.430;23.136;2022-09-03T21:45:17;7.97;;;6.63;;
46721;SDS011;32455;43.430;23.136;2022-09-03T21:48:19;12.48;;;6.07;;
46721;SDS011;32455;43.430;23.136;2022-09-03T21:51:30;7.65;;;6.18;;
46721;SDS011;32455;43.430;23.136;2022-09-03T21:57:18;9.52;;;6.88;;
46721;SDS011;32455;43.430;23.136;2022-09-03T22:03:02;7.78;;;5.90;;
46721;SDS011;32455;43.430;23.136;2022-09-03T22:06:02;7.72;;;6.60;;
46721;SDS011;32455;43.430;23.136;2022-09-03T22:09:03;7.93;;;6.32;;
46721;SDS011;32455;43.430;23.136;2022-09-03T22:12:02;7.00;;;6.30;;
46721;SDS011;32455;43.430;23.136;2022-09-03T22:15:03;7.65;;;6.13;;
46721;SDS011;32455;43.430;23.136;2022-09-03T22:18:01;14.98;;;6.22;;
46721;SDS011;32455;43.430;23.136;2022-09-03T22:24:08;9.65;;;6.53;;
46721;SDS011;32455;43.430;23.136;2022-09-03T22:30:12;8.65;;;6.28;;
46721;SDS011;32455;43.430;23.136;2022-09-03T22:33:13;8.80;;;7.03;;
46721;SDS011;32455;43.430;23.136;2022-09-03T22:39:17;9.85;;;6.40;;
46721;SDS011;32455;43.430;23.136;2022-09-03T22:45:23;8.25;;;6.93;;
46721;SDS011;32455;43.430;23.136;2022-09-03T22:51:29;8.65;;;7.10;;
46721;SDS011;32455;43.430;23.136;2022-09-03T22:57:29;8.30;;;7.25;;